Waspik, Netherlands
Current Conditions -  °F | °C
As of 5:25 PM on Monday 24 Nov 2014 (Local Time) from EHGR Reporting Station
Few Clouds Few Clouds  
Wind Chill: 41°   Ceiling: Unl
Heat Index: 41°   Visibility: 6mi
Dew Point: 39°   Wind: 2mph
Humidity: 93%   Direction: 260°W
Pressure: 30.3"   Gusts: NA
Location:  51.69°N, 4.94°E
Report Text: EHGR 241625Z AUTO 26002KT 9999 FEW033 05/04 Q1026 BLU
Loading
Personal Weather Stations






























Interactive Weather Map New forecast layout! Learn more

10-Day Weather Forecast

Advertisements
Track Severe Weather on mobile